METAR Data
IDs: Format: Raw Decoded Include TAF

Data at: 0248 UTC 18 Jun 2019

PAIN 180156Z AUTO VRB04KT 10SM CLR 17/07 A2961 RMK AO2 SLP041 T01720067
PAIN 180056Z AUTO VRB06KT 10SM SCT080 17/07 A2961 RMK AO2 SLP041 T01720067
PAIN 172356Z AUTO VRB05KT 10SM BKN050 OVC065 16/08 A2962 RMK AO2 RAE33 SLP043 P0000 60001 T01610078 10183 20128 51009
PAIN 172256Z AUTO VRB04KT 10SM -RA OVC048 14/11 A2961 RMK AO2 RAB09 SLP042 P0001 T01440106
PAIN 172156Z AUTO VRB06KT 10SM FEW050 SCT060 17/07 A2960 RMK AO2 SLP035 T01720072
PAIN 172056Z AUTO VRB03KT 10SM OVC080 18/09 A2959 RMK AO2 SLP030 T01780089 56004
PAIN 171956Z AUTO VRB03KT 10SM FEW021 SCT070 17/08 A2959 RMK AO2 SLP032 T01670078
PAIN 171950Z AUTO VRB03KT 10SM FEW021 SCT070 17/08 A2959 RMK AO2
PAIN 171928Z AUTO 18004KT 10SM BKN021 16/08 A2960 RMK AO2
PAIN 171856Z AUTO 28004KT 10SM CLR 15/09 A2960 RMK AO2 SLP036 T01500094
PAIN 171834Z AUTO 00000KT 10SM FEW014 14/09 A2961 RMK AO2
PAIN 171756Z AUTO 00000KT 10SM OVC014 13/09 A2962 RMK AO2 SLP042 T01280094 10128 20072 56008
PAIN 171656Z AUTO 00000KT 10SM OVC014 12/08 A2962 RMK AO2 SLP043 T01170083
PAIN 171556Z AUTO VRB03KT 10SM FEW005 OVC014 11/09 A2963 RMK AO2 SLP046 T01060089
PAIN 171456Z AUTO 00000KT 10SM FEW002 OVC014 08/08 A2964 RMK AO2 SLP050 T00830078 56006
PAIN 171452Z AUTO 00000KT 10SM FEW002 OVC014 08/08 A2965 RMK AO2
PAIN 171435Z AUTO 00000KT 10SM BKN002 OVC016 07/07 A2965 RMK AO2
PAIN 171409Z AUTO 00000KT 3SM BR FEW002 OVC014 07/07 A2965 RMK AO2
PAIN 171356Z AUTO 00000KT 9SM BKN002 OVC016 07/07 A2966 RMK AO2 CIG 001V005 SLP056 T00720067
PAIN 171351Z AUTO 00000KT 4SM BR BKN004 OVC016 07/07 A2966 RMK AO2 CIG 001V005
PAIN 171348Z AUTO 00000KT 1 1/4SM BR BKN004 OVC014 07/07 A2966 RMK AO2 CIG 001V005
PAIN 171342Z AUTO 00000KT 3/4SM BR BKN004 OVC014 08/07 A2966 RMK AO2 CIG 001V006
PAIN 171333Z AUTO 00000KT 3SM BR OVC004 08/08 A2966 RMK AO2
PAIN 171315Z AUTO 00000KT 1 3/4SM BR BKN004 OVC013 08/07 A2966 RMK AO2
PAIN 171256Z AUTO 00000KT 10SM OVC004 08/08 A2966 RMK AO2 SLP058 T00780078
PAIN 171235Z AUTO 00000KT 10SM BKN004 OVC015 08/08 A2967 RMK AO2
PAIN 171156Z AUTO 00000KT 10SM BKN002 OVC048 08/08 A2968 RMK AO2 SLP062 60018 70029 T00830078 10122 20083 56008
PAIN 171139Z AUTO 00000KT 10SM BKN004 BKN048 08/08 A2968 RMK AO2
PAIN 171056Z AUTO 20003KT 10SM OVC050 09/08 A2968 RMK AO2 SLP062 T00890083
PAIN 170956Z AUTO 00000KT 10SM BKN048 BKN060 09/09 A2969 RMK AO2 SLP063 T00940089
PAIN 170856Z AUTO 00000KT 10SM CLR 10/09 A2970 RMK AO2 SLP067 60018 T01000094 402000072 56008
PAIN 170756Z AUTO VRB04KT 10SM OVC085 11/10 A2970 RMK AO2 RAE23 SLP067 P0001 T01110100
PAIN 170656Z AUTO VRB03KT 10SM -RA OVC060 11/10 A2969 RMK AO2 SLP066 P0017 T01110100
PAIN 170556Z AUTO 00000KT 8SM RA OVC055 12/11 A2973 RMK AO2 RAB12 SLP077 P0011 60011 T01220106 10178 20122 53011
PAIN 170456Z AUTO VRB03KT 10SM FEW035 OVC070 15/07 A2971 RMK AO2 RAE38 SLP070 P0000 T01500072
PAIN 170356Z AUTO VRB04KT 10SM -RA FEW032 OVC070 17/09 A2970 RMK AO2 RAB32 SLP067 P0000 T01670089
PAIN 170256Z AUTO 00000KT 10SM FEW050 OVC090 18/09 A2969 RMK AO2 SLP065 60000 T01780089 56008
PAIN 170156Z AUTO 00000KT 10SM FEW080 17/08 A2969 RMK AO2 SLP069 T01720083
PAIN 170056Z AUTO 36005KT 10SM FEW044 BKN060 OVC070 17/08 A2971 RMK AO2 RAB00E20 SLP074 P0000 T01670083
PAIN 162356Z AUTO 02007KT 10SM FEW044 BKN070 17/07 A2971 RMK AO2 SLP074 T01720072 10200 20161 53001
PAIN 162256Z AUTO 36012G18KT 10SM FEW080 17/08 A2971 RMK AO2 SLP073 T01720083
PAIN 162156Z AUTO 01010G15KT 10SM BKN085 20/09 A2971 RMK AO2 SLP069 T02000094
PAIN 162056Z AUTO 02007KT 10SM SCT085 19/07 A2971 RMK AO2 SLP071 T01940072 56013
PAIN 161956Z AUTO VRB04KT 10SM CLR 18/06 A2972 RMK AO2 SLP074 T01830061
PAIN 161856Z AUTO 00000KT 10SM CLR 18/06 A2974 RMK AO2 SLP078 T01780056
PAIN 161756Z AUTO VRB03KT 10SM CLR 16/06 A2975 RMK AO2 SLP084 T01610056 10161 20072 57012
PAIN 161656Z AUTO VRB03KT 10SM CLR 14/07 A2976 RMK AO2 SLP088 T01440067
PAIN 161556Z AUTO VRB03KT 10SM CLR 12/07 A2978 RMK AO2 SLP095 T01220067
PAIN 161456Z AUTO 09003KT 10SM CLR 10/06 A2979 RMK AO2 SLP100 T01000061 58002